sensor_id;sensor_type;location;lat;lon;timestamp;temperature;humidity
11423;DHT22;5768;51.476;7.210;2023-02-01T00:03:48;6.70;90.70
11423;DHT22;5768;51.476;7.210;2023-02-01T00:08:52;6.90;85.30
11423;DHT22;5768;51.476;7.210;2023-02-01T00:13:58;7.00;29.90
11423;DHT22;5768;51.476;7.210;2023-02-01T00:19:04;7.00;27.90
11423;DHT22;5768;51.476;7.210;2023-02-01T00:24:11;6.90;25.90
11423;DHT22;5768;51.476;7.210;2023-02-01T00:29:16;6.80;24.70
11423;DHT22;5768;51.476;7.210;2023-02-01T00:34:22;6.70;24.70
11423;DHT22;5768;51.476;7.210;2023-02-01T00:39:24;7.00;23.90
11423;DHT22;5768;51.476;7.210;2023-02-01T00:44:26;7.00;22.20
11423;DHT22;5768;51.476;7.210;2023-02-01T00:49:30;7.10;21.60
11423;DHT22;5768;51.476;7.210;2023-02-01T00:54:33;6.90;21.20
11423;DHT22;5768;51.476;7.210;2023-02-01T00:59:39;6.90;21.50
11423;DHT22;5768;51.476;7.210;2023-02-01T01:04:42;6.90;21.00
11423;DHT22;5768;51.476;7.210;2023-02-01T01:09:44;6.90;21.10
11423;DHT22;5768;51.476;7.210;2023-02-01T01:14:53;7.20;21.10
11423;DHT22;5768;51.476;7.210;2023-02-01T01:19:57;7.10;21.00
11423;DHT22;5768;51.476;7.210;2023-02-01T01:24:59;7.00;21.30
11423;DHT22;5768;51.476;7.210;2023-02-01T01:30:01;7.00;21.60
11423;DHT22;5768;51.476;7.210;2023-02-01T01:35:05;7.00;21.70
11423;DHT22;5768;51.476;7.210;2023-02-01T01:40:10;7.00;21.50
11423;DHT22;5768;51.476;7.210;2023-02-01T01:45:22;7.10;20.90
11423;DHT22;5768;51.476;7.210;2023-02-01T01:50:32;7.10;20.90
11423;DHT22;5768;51.476;7.210;2023-02-01T01:55:39;7.10;21.60
11423;DHT22;5768;51.476;7.210;2023-02-01T02:00:47;7.00;22.10
11423;DHT22;5768;51.476;7.210;2023-02-01T02:05:53;7.00;22.20
11423;DHT22;5768;51.476;7.210;2023-02-01T02:10:59;7.00;22.40
11423;DHT22;5768;51.476;7.210;2023-02-01T02:21:56;6.90;22.80
11423;DHT22;5768;51.476;7.210;2023-02-01T02:27:22;7.00;22.30
11423;DHT22;5768;51.476;7.210;2023-02-01T02:32:52;6.70;21.70
11423;DHT22;5768;51.476;7.210;2023-02-01T02:38:38;6.80;21.50
11423;DHT22;5768;51.476;7.210;2023-02-01T02:43:49;6.90;20.80
11423;DHT22;5768;51.476;7.210;2023-02-01T02:49:19;6.80;21.00
11423;DHT22;5768;51.476;7.210;2023-02-01T02:54:30;6.70;20.60
11423;DHT22;5768;51.476;7.210;2023-02-01T02:59:53;6.60;20.80
11423;DHT22;5768;51.476;7.210;2023-02-01T03:05:15;6.60;20.70
11423;DHT22;5768;51.476;7.210;2023-02-01T03:10:26;6.50;20.50
11423;DHT22;5768;51.476;7.210;2023-02-01T03:15:37;6.50;20.50
11423;DHT22;5768;51.476;7.210;2023-02-01T03:20:47;6.50;20.50
11423;DHT22;5768;51.476;7.210;2023-02-01T03:25:53;6.70;20.20
11423;DHT22;5768;51.476;7.210;2023-02-01T03:30:58;6.50;19.90
11423;DHT22;5768;51.476;7.210;2023-02-01T03:36:09;6.50;19.70
11423;DHT22;5768;51.476;7.210;2023-02-01T03:41:22;6.50;19.80
11423;DHT22;5768;51.476;7.210;2023-02-01T03:46:32;6.60;19.70
11423;DHT22;5768;51.476;7.210;2023-02-01T03:51:37;6.60;19.70
11423;DHT22;5768;51.476;7.210;2023-02-01T03:56:46;6.50;19.80
11423;DHT22;5768;51.476;7.210;2023-02-01T04:01:50;6.70;19.80
11423;DHT22;5768;51.476;7.210;2023-02-01T04:06:53;6.50;20.00
11423;DHT22;5768;51.476;7.210;2023-02-01T04:11:56;6.50;20.50
11423;DHT22;5768;51.476;7.210;2023-02-01T04:16:58;6.60;20.60
11423;DHT22;5768;51.476;7.210;2023-02-01T04:22:01;6.50;20.90
11423;DHT22;5768;51.476;7.210;2023-02-01T04:27:04;6.50;20.70
11423;DHT22;5768;51.476;7.210;2023-02-01T04:32:07;6.80;20.90
11423;DHT22;5768;51.476;7.210;2023-02-01T04:37:09;6.80;21.00
11423;DHT22;5768;51.476;7.210;2023-02-01T04:42:13;6.60;21.30
11423;DHT22;5768;51.476;7.210;2023-02-01T04:47:15;6.70;21.20
11423;DHT22;5768;51.476;7.210;2023-02-01T04:52:17;6.70;21.60
11423;DHT22;5768;51.476;7.210;2023-02-01T04:57:21;6.60;22.00
11423;DHT22;5768;51.476;7.210;2023-02-01T05:02:23;6.80;22.10
11423;DHT22;5768;51.476;7.210;2023-02-01T05:07:25;6.60;22.30
11423;DHT22;5768;51.476;7.210;2023-02-01T05:12:28;6.60;22.60
11423;DHT22;5768;51.476;7.210;2023-02-01T05:18:03;6.60;22.70
11423;DHT22;5768;51.476;7.210;2023-02-01T05:23:05;6.50;23.20
11423;DHT22;5768;51.476;7.210;2023-02-01T05:28:08;6.50;23.50
11423;DHT22;5768;51.476;7.210;2023-02-01T05:33:10;6.30;24.10
11423;DHT22;5768;51.476;7.210;2023-02-01T05:38:12;6.50;23.90
11423;DHT22;5768;51.476;7.210;2023-02-01T05:43:15;6.50;23.70
11423;DHT22;5768;51.476;7.210;2023-02-01T05:48:18;6.40;23.90
11423;DHT22;5768;51.476;7.210;2023-02-01T05:53:21;6.30;24.10
11423;DHT22;5768;51.476;7.210;2023-02-01T05:58:24;6.20;24.70
11423;DHT22;5768;51.476;7.210;2023-02-01T06:03:27;6.20;25.20
11423;DHT22;5768;51.476;7.210;2023-02-01T06:08:29;6.10;25.50
11423;DHT22;5768;51.476;7.210;2023-02-01T06:13:33;6.20;25.40
11423;DHT22;5768;51.476;7.210;2023-02-01T06:18:35;6.20;24.90
11423;DHT22;5768;51.476;7.210;2023-02-01T06:23:38;6.30;24.80
11423;DHT22;5768;51.476;7.210;2023-02-01T06:28:42;6.50;24.40
11423;DHT22;5768;51.476;7.210;2023-02-01T06:33:44;6.40;24.10
11423;DHT22;5768;51.476;7.210;2023-02-01T06:38:47;6.50;24.30
11423;DHT22;5768;51.476;7.210;2023-02-01T06:43:51;6.60;23.60
11423;DHT22;5768;51.476;7.210;2023-02-01T06:48:53;6.40;23.60
11423;DHT22;5768;51.476;7.210;2023-02-01T06:53:56;6.40;24.10
11423;DHT22;5768;51.476;7.210;2023-02-01T06:59:02;6.60;23.50
11423;DHT22;5768;51.476;7.210;2023-02-01T07:04:05;6.50;23.90
11423;DHT22;5768;51.476;7.210;2023-02-01T07:09:08;6.70;22.90
11423;DHT22;5768;51.476;7.210;2023-02-01T07:14:14;6.70;22.80
11423;DHT22;5768;51.476;7.210;2023-02-01T07:19:16;6.70;22.60
11423;DHT22;5768;51.476;7.210;2023-02-01T07:24:18;6.70;22.70
11423;DHT22;5768;51.476;7.210;2023-02-01T07:29:21;6.50;23.30
11423;DHT22;5768;51.476;7.210;2023-02-01T07:34:23;6.80;22.90
11423;DHT22;5768;51.476;7.210;2023-02-01T07:39:25;6.70;22.80
11423;DHT22;5768;51.476;7.210;2023-02-01T07:44:30;6.70;23.50
11423;DHT22;5768;51.476;7.210;2023-02-01T07:49:32;6.90;22.80
11423;DHT22;5768;51.476;7.210;2023-02-01T07:54:35;6.70;23.30
11423;DHT22;5768;51.476;7.210;2023-02-01T07:59:39;6.90;23.40
11423;DHT22;5768;51.476;7.210;2023-02-01T08:05:02;6.80;23.50
11423;DHT22;5768;51.476;7.210;2023-02-01T08:10:06;6.70;23.70
11423;DHT22;5768;51.476;7.210;2023-02-01T08:15:12;6.90;23.50
11423;DHT22;5768;51.476;7.210;2023-02-01T08:20:15;6.90;23.60
11423;DHT22;5768;51.476;7.210;2023-02-01T08:25:17;6.90;23.60
11423;DHT22;5768;51.476;7.210;2023-02-01T08:30:21;6.80;23.70
11423;DHT22;5768;51.476;7.210;2023-02-01T08:35:23;6.90;23.90
11423;DHT22;5768;51.476;7.210;2023-02-01T08:40:25;6.80;24.10
11423;DHT22;5768;51.476;7.210;2023-02-01T08:45:29;6.90;23.90
11423;DHT22;5768;51.476;7.210;2023-02-01T08:50:32;7.10;23.70
11423;DHT22;5768;51.476;7.210;2023-02-01T08:55:34;7.10;23.50
11423;DHT22;5768;51.476;7.210;2023-02-01T09:00:38;7.40;22.80
11423;DHT22;5768;51.476;7.210;2023-02-01T09:05:41;7.20;23.10
11423;DHT22;5768;51.476;7.210;2023-02-01T09:10:43;7.00;23.60
11423;DHT22;5768;51.476;7.210;2023-02-01T09:15:46;7.10;23.50
11423;DHT22;5768;51.476;7.210;2023-02-01T09:20:48;7.10;22.80
11423;DHT22;5768;51.476;7.210;2023-02-01T09:25:51;7.20;22.20
11423;DHT22;5768;51.476;7.210;2023-02-01T09:30:56;7.50;22.00
11423;DHT22;5768;51.476;7.210;2023-02-01T09:36:00;7.40;21.50
11423;DHT22;5768;51.476;7.210;2023-02-01T09:41:10;7.50;21.40
11423;DHT22;5768;51.476;7.210;2023-02-01T09:46:28;7.40;21.40
11423;DHT22;5768;51.476;7.210;2023-02-01T09:51:34;7.50;21.20
11423;DHT22;5768;51.476;7.210;2023-02-01T09:56:41;7.40;21.30
11423;DHT22;5768;51.476;7.210;2023-02-01T10:01:49;7.50;21.30
11423;DHT22;5768;51.476;7.210;2023-02-01T10:06:59;7.50;21.40
11423;DHT22;5768;51.476;7.210;2023-02-01T10:18:27;7.50;20.20
11423;DHT22;5768;51.476;7.210;2023-02-01T10:23:51;7.60;20.20
11423;DHT22;5768;51.476;7.210;2023-02-01T10:29:03;7.60;20.10
11423;DHT22;5768;51.476;7.210;2023-02-01T10:34:17;7.60;20.00
11423;DHT22;5768;51.476;7.210;2023-02-01T10:39:22;7.60;20.30
11423;DHT22;5768;51.476;7.210;2023-02-01T10:44:27;7.70;20.00
11423;DHT22;5768;51.476;7.210;2023-02-01T10:49:38;7.40;20.10
11423;DHT22;5768;51.476;7.210;2023-02-01T10:54:46;7.50;20.50
11423;DHT22;5768;51.476;7.210;2023-02-01T10:59:48;7.60;20.00
11423;DHT22;5768;51.476;7.210;2023-02-01T11:04:58;7.70;20.00
11423;DHT22;5768;51.476;7.210;2023-02-01T11:10:04;7.80;19.70
11423;DHT22;5768;51.476;7.210;2023-02-01T11:15:14;7.60;19.50
11423;DHT22;5768;51.476;7.210;2023-02-01T11:20:36;7.60;19.90
11423;DHT22;5768;51.476;7.210;2023-02-01T11:25:48;7.70;19.70
11423;DHT22;5768;51.476;7.210;2023-02-01T11:30:54;7.90;19.50
11423;DHT22;5768;51.476;7.210;2023-02-01T11:36:00;8.00;18.90
11423;DHT22;5768;51.476;7.210;2023-02-01T11:41:13;7.90;19.20
11423;DHT22;5768;51.476;7.210;2023-02-01T11:46:18;8.00;19.00
11423;DHT22;5768;51.476;7.210;2023-02-01T11:51:42;7.90;18.90
11423;DHT22;5768;51.476;7.210;2023-02-01T11:57:02;7.90;18.80
11423;DHT22;5768;51.476;7.210;2023-02-01T12:02:35;7.80;19.40
11423;DHT22;5768;51.476;7.210;2023-02-01T12:08:20;7.50;86.00
11423;DHT22;5768;51.476;7.210;2023-02-01T12:13:44;6.80;88.80
11423;DHT22;5768;51.476;7.210;2023-02-01T12:24:40;6.80;93.40
11423;DHT22;5768;51.476;7.210;2023-02-01T12:30:17;6.70;86.80
11423;DHT22;5768;51.476;7.210;2023-02-01T12:35:48;6.80;38.20
11423;DHT22;5768;51.476;7.210;2023-02-01T12:41:29;7.00;34.20
11423;DHT22;5768;51.476;7.210;2023-02-01T12:46:43;6.90;28.20
11423;DHT22;5768;51.476;7.210;2023-02-01T12:51:50;7.00;28.60
11423;DHT22;5768;51.476;7.210;2023-02-01T12:57:01;7.30;27.10
11423;DHT22;5768;51.476;7.210;2023-02-01T13:02:14;7.40;25.60
11423;DHT22;5768;51.476;7.210;2023-02-01T13:07:23;7.50;24.90
11423;DHT22;5768;51.476;7.210;2023-02-01T13:12:34;7.60;24.60
11423;DHT22;5768;51.476;7.210;2023-02-01T13:17:40;7.50;25.00
11423;DHT22;5768;51.476;7.210;2023-02-01T13:22:47;7.60;24.40
11423;DHT22;5768;51.476;7.210;2023-02-01T13:27:55;7.60;22.90
11423;DHT22;5768;51.476;7.210;2023-02-01T13:33:15;7.60;23.10
11423;DHT22;5768;51.476;7.210;2023-02-01T13:44:43;7.80;22.50
11423;DHT22;5768;51.476;7.210;2023-02-01T13:49:48;7.80;22.10
11423;DHT22;5768;51.476;7.210;2023-02-01T13:55:02;7.90;21.80
11423;DHT22;5768;51.476;7.210;2023-02-01T14:00:29;7.90;21.40
11423;DHT22;5768;51.476;7.210;2023-02-01T14:05:56;7.90;21.20
11423;DHT22;5768;51.476;7.210;2023-02-01T14:11:35;8.00;20.70
11423;DHT22;5768;51.476;7.210;2023-02-01T14:16:41;8.00;22.10
11423;DHT22;5768;51.476;7.210;2023-02-01T14:21:48;7.90;23.00
11423;DHT22;5768;51.476;7.210;2023-02-01T14:26:52;8.00;21.50
11423;DHT22;5768;51.476;7.210;2023-02-01T14:32:04;8.10;21.50
11423;DHT22;5768;51.476;7.210;2023-02-01T14:37:24;8.10;20.90
11423;DHT22;5768;51.476;7.210;2023-02-01T14:42:31;8.10;21.10
11423;DHT22;5768;51.476;7.210;2023-02-01T14:47:41;8.10;21.70
11423;DHT22;5768;51.476;7.210;2023-02-01T14:52:46;8.20;21.50
11423;DHT22;5768;51.476;7.210;2023-02-01T14:57:53;8.20;22.60
11423;DHT22;5768;51.476;7.210;2023-02-01T15:08:47;8.20;21.00
11423;DHT22;5768;51.476;7.210;2023-02-01T15:13:50;8.20;21.50
11423;DHT22;5768;51.476;7.210;2023-02-01T15:19:10;8.40;20.90
11423;DHT22;5768;51.476;7.210;2023-02-01T15:24:21;8.30;20.80
11423;DHT22;5768;51.476;7.210;2023-02-01T15:29:25;8.40;20.00
11423;DHT22;5768;51.476;7.210;2023-02-01T15:34:47;8.40;20.60
11423;DHT22;5768;51.476;7.210;2023-02-01T15:40:19;8.40;20.00
11423;DHT22;5768;51.476;7.210;2023-02-01T15:45:27;8.30;20.70
11423;DHT22;5768;51.476;7.210;2023-02-01T15:50:32;8.20;20.50
11423;DHT22;5768;51.476;7.210;2023-02-01T15:55:37;8.20;20.10
11423;DHT22;5768;51.476;7.210;2023-02-01T16:00:44;8.30;20.00
11423;DHT22;5768;51.476;7.210;2023-02-01T16:05:55;8.40;19.50
11423;DHT22;5768;51.476;7.210;2023-02-01T16:11:12;8.40;19.70
11423;DHT22;5768;51.476;7.210;2023-02-01T16:16:23;8.30;19.50
11423;DHT22;5768;51.476;7.210;2023-02-01T16:21:27;8.30;19.70
11423;DHT22;5768;51.476;7.210;2023-02-01T16:26:29;8.30;19.80
11423;DHT22;5768;51.476;7.210;2023-02-01T16:31:34;8.40;19.80
11423;DHT22;5768;51.476;7.210;2023-02-01T16:36:39;8.40;20.10
11423;DHT22;5768;51.476;7.210;2023-02-01T16:41:41;8.40;20.80
11423;DHT22;5768;51.476;7.210;2023-02-01T16:46:45;7.70;29.10
11423;DHT22;5768;51.476;7.210;2023-02-01T16:51:52;7.60;81.90
11423;DHT22;5768;51.476;7.210;2023-02-01T16:56:58;7.40;86.70
11423;DHT22;5768;51.476;7.210;2023-02-01T17:02:00;7.30;85.50
11423;DHT22;5768;51.476;7.210;2023-02-01T17:07:03;7.40;84.70
11423;DHT22;5768;51.476;7.210;2023-02-01T17:12:18;7.50;81.70
11423;DHT22;5768;51.476;7.210;2023-02-01T17:17:27;7.50;29.40
11423;DHT22;5768;51.476;7.210;2023-02-01T17:22:36;6.40;92.90
11423;DHT22;5768;51.476;7.210;2023-02-01T17:27:38;5.90;99.90
11423;DHT22;5768;51.476;7.210;2023-02-01T17:32:42;5.80;99.90
11423;DHT22;5768;51.476;7.210;2023-02-01T17:37:47;5.90;99.90
11423;DHT22;5768;51.476;7.210;2023-02-01T17:42:49;6.00;99.90
11423;DHT22;5768;51.476;7.210;2023-02-01T17:47:57;6.20;99.90
11423;DHT22;5768;51.476;7.210;2023-02-01T17:53:00;6.40;99.90
11423;DHT22;5768;51.476;7.210;2023-02-01T17:58:05;6.80;98.70
11423;DHT22;5768;51.476;7.210;2023-02-01T18:03:22;6.80;97.20
11423;DHT22;5768;51.476;7.210;2023-02-01T18:08:31;6.90;95.80
11423;DHT22;5768;51.476;7.210;2023-02-01T18:13:33;7.20;87.60
11423;DHT22;5768;51.476;7.210;2023-02-01T18:18:35;7.50;88.30
11423;DHT22;5768;51.476;7.210;2023-02-01T18:23:39;7.40;90.60
11423;DHT22;5768;51.476;7.210;2023-02-01T18:28:41;7.30;89.90
11423;DHT22;5768;51.476;7.210;2023-02-01T18:33:44;7.40;87.60
11423;DHT22;5768;51.476;7.210;2023-02-01T18:38:47;7.40;85.50
11423;DHT22;5768;51.476;7.210;2023-02-01T18:43:51;6.10;28.50
11423;DHT22;5768;51.476;7.210;2023-02-01T18:48:53;4.90;99.90
11423;DHT22;5768;51.476;7.210;2023-02-01T18:53:56;4.20;99.90
11423;DHT22;5768;51.476;7.210;2023-02-01T18:59:00;4.40;99.90
11423;DHT22;5768;51.476;7.210;2023-02-01T19:04:02;4.50;99.90
11423;DHT22;5768;51.476;7.210;2023-02-01T19:09:06;4.50;99.90
11423;DHT22;5768;51.476;7.210;2023-02-01T19:14:08;4.50;99.90
11423;DHT22;5768;51.476;7.210;2023-02-01T19:19:11;4.60;99.90
11423;DHT22;5768;51.476;7.210;2023-02-01T19:24:14;5.00;99.90
11423;DHT22;5768;51.476;7.210;2023-02-01T19:29:17;5.30;99.90
11423;DHT22;5768;51.476;7.210;2023-02-01T19:34:19;5.70;99.90
11423;DHT22;5768;51.476;7.210;2023-02-01T19:39:22;6.00;99.90
11423;DHT22;5768;51.476;7.210;2023-02-01T19:44:26;6.10;99.90
11423;DHT22;5768;51.476;7.210;2023-02-01T19:49:34;6.40;99.90
11423;DHT22;5768;51.476;7.210;2023-02-01T19:54:37;6.10;99.90
11423;DHT22;5768;51.476;7.210;2023-02-01T19:59:42;3.70;99.90
11423;DHT22;5768;51.476;7.210;2023-02-01T20:04:44;3.40;99.90
11423;DHT22;5768;51.476;7.210;2023-02-01T20:09:48;4.40;99.90
11423;DHT22;5768;51.476;7.210;2023-02-01T20:14:51;4.50;99.90
11423;DHT22;5768;51.476;7.210;2023-02-01T20:19:53;3.70;99.90
11423;DHT22;5768;51.476;7.210;2023-02-01T20:24:57;3.80;99.90
11423;DHT22;5768;51.476;7.210;2023-02-01T20:29:59;4.30;99.90
11423;DHT22;5768;51.476;7.210;2023-02-01T20:35:01;4.40;99.90
11423;DHT22;5768;51.476;7.210;2023-02-01T20:40:08;3.90;99.90
11423;DHT22;5768;51.476;7.210;2023-02-01T20:45:11;3.90;99.90
11423;DHT22;5768;51.476;7.210;2023-02-01T20:50:14;4.10;99.90
11423;DHT22;5768;51.476;7.210;2023-02-01T20:55:18;4.70;99.90
11423;DHT22;5768;51.476;7.210;2023-02-01T21:00:20;4.70;99.90
11423;DHT22;5768;51.476;7.210;2023-02-01T21:05:23;4.60;99.90
11423;DHT22;5768;51.476;7.210;2023-02-01T21:10:41;4.70;99.90
11423;DHT22;5768;51.476;7.210;2023-02-01T21:15:43;4.30;99.90
11423;DHT22;5768;51.476;7.210;2023-02-01T21:20:48;5.00;99.90
11423;DHT22;5768;51.476;7.210;2023-02-01T21:25:52;4.70;99.90
11423;DHT22;5768;51.476;7.210;2023-02-01T21:30:54;5.10;99.90
11423;DHT22;5768;51.476;7.210;2023-02-01T21:35:56;5.30;99.90
11423;DHT22;5768;51.476;7.210;2023-02-01T21:41:00;5.10;99.90
11423;DHT22;5768;51.476;7.210;2023-02-01T21:46:19;4.40;99.90
11423;DHT22;5768;51.476;7.210;2023-02-01T21:51:21;4.50;99.90
11423;DHT22;5768;51.476;7.210;2023-02-01T21:56:28;4.70;99.90
11423;DHT22;5768;51.476;7.210;2023-02-01T22:01:31;4.60;99.90
11423;DHT22;5768;51.476;7.210;2023-02-01T22:06:35;4.70;99.90
11423;DHT22;5768;51.476;7.210;2023-02-01T22:11:40;4.50;99.90
11423;DHT22;5768;51.476;7.210;2023-02-01T22:16:42;4.30;99.90
11423;DHT22;5768;51.476;7.210;2023-02-01T22:21:46;4.80;99.90
11423;DHT22;5768;51.476;7.210;2023-02-01T22:26:50;4.70;99.90
11423;DHT22;5768;51.476;7.210;2023-02-01T22:31:52;4.90;99.90
11423;DHT22;5768;51.476;7.210;2023-02-01T22:36:54;5.00;99.90
11423;DHT22;5768;51.476;7.210;2023-02-01T22:41:58;4.90;99.90
11423;DHT22;5768;51.476;7.210;2023-02-01T22:47:00;5.00;99.90
11423;DHT22;5768;51.476;7.210;2023-02-01T22:52:02;5.10;99.90
11423;DHT22;5768;51.476;7.210;2023-02-01T22:57:06;5.30;99.90
11423;DHT22;5768;51.476;7.210;2023-02-01T23:02:08;5.10;99.90
11423;DHT22;5768;51.476;7.210;2023-02-01T23:07:11;4.90;99.90
11423;DHT22;5768;51.476;7.210;2023-02-01T23:12:14;5.10;99.90
11423;DHT22;5768;51.476;7.210;2023-02-01T23:17:17;5.20;99.90
11423;DHT22;5768;51.476;7.210;2023-02-01T23:22:19;5.10;99.90
11423;DHT22;5768;51.476;7.210;2023-02-01T23:27:22;5.20;99.90
11423;DHT22;5768;51.476;7.210;2023-02-01T23:32:27;5.20;99.90
11423;DHT22;5768;51.476;7.210;2023-02-01T23:37:29;5.20;99.90
11423;DHT22;5768;51.476;7.210;2023-02-01T23:42:33;5.10;99.90
11423;DHT22;5768;51.476;7.210;2023-02-01T23:47:35;5.10;99.90
11423;DHT22;5768;51.476;7.210;2023-02-01T23:52:38;5.20;99.90
11423;DHT22;5768;51.476;7.210;2023-02-01T23:57:41;5.10;99.90
